Time;durP1;ratioP1;P1;durP2;ratioP2;P2;SDS_P1;SDS_P2;PMS_P1;PMS_P2;Temp;Humidity;BMP_temperature;BMP_pressure;BME280_temperature;BME280_humidity;BME280_pressure;Samples;Min_cycle;Max_cycle;Signal;HPM_P1;HPM_P2
2022/04/13 00:00:49;;;;;;;5.03;2.97;;;;;;;11.86;85.71;99716.72;4982071;28;20325;-58
2022/04/13 00:03:15;;;;;;;3.63;2.80;;;;;;;11.76;86.21;99721.66;4991427;28;20180;-61
2022/04/13 00:05:40;;;;;;;5.33;3.30;;;;;;;11.68;86.92;99721.34;4993089;28;20249;-60
2022/04/13 00:08:06;;;;;;;5.10;3.00;;;;;;;11.66;87.79;99728.31;4992596;28;20222;-60
2022/04/13 00:10:35;;;;;;;5.17;3.00;;;;;;;11.62;87.50;99717.38;4984484;28;20234;-61
2022/04/13 00:13:01;;;;;;;3.53;2.87;;;;;;;11.63;87.71;99724.19;4991161;28;20281;-59
2022/04/13 00:15:27;;;;;;;4.93;2.87;;;;;;;11.55;87.79;99718.75;4991117;28;20194;-61
2022/04/13 00:17:52;;;;;;;3.53;2.40;;;;;;;11.44;88.04;99719.41;4990830;28;20183;-61
2022/04/13 00:20:17;;;;;;;4.83;2.80;;;;;;;11.43;87.76;99726.31;4984956;28;20178;-59
2022/04/13 00:22:43;;;;;;;5.93;3.80;;;;;;;11.44;88.14;99730.53;4991376;28;20176;-59
2022/04/13 00:25:08;;;;;;;3.77;3.37;;;;;;;11.37;88.08;99718.16;4992554;28;20251;-60
2022/04/13 00:27:33;;;;;;;6.10;2.80;;;;;;;11.30;89.42;99728.03;4992718;28;20195;-59
2022/04/13 00:29:59;;;;;;;3.53;2.87;;;;;;;11.16;89.88;99730.66;4992236;28;20260;-59
2022/04/13 00:32:25;;;;;;;4.07;3.20;;;;;;;11.01;91.79;99722.94;4997443;28;20585;-59
2022/04/13 00:34:51;;;;;;;3.90;2.80;;;;;;;11.05;92.79;99729.59;4990766;28;20185;-59
2022/04/13 00:37:16;;;;;;;4.03;3.00;;;;;;;11.12;92.09;99724.88;4992646;28;20208;-59
2022/04/13 00:39:43;;;;;;;3.80;2.90;;;;;;;11.18;90.61;99724.47;4992610;28;20179;-59
2022/04/13 00:42:09;;;;;;;4.83;3.23;;;;;;;11.25;89.40;99724.91;4983007;28;20307;-60
2022/04/13 00:44:34;;;;;;;4.60;3.17;;;;;;;11.24;89.15;99721.50;4989853;28;20654;-59
2022/04/13 00:47:07;;;;;;;3.77;2.50;;;;;;;11.23;88.88;99726.78;4991983;28;20204;-60
2022/04/13 00:49:34;;;;;;;4.80;3.17;;;;;;;11.17;88.85;99734.88;4991172;28;20176;-59
2022/04/13 00:52:02;;;;;;;3.93;2.80;;;;;;;11.23;88.39;99729.34;4983636;28;20277;-59
2022/04/13 00:54:30;;;;;;;6.40;3.10;;;;;;;11.34;88.05;99728.63;4990286;28;20190;-59
2022/04/13 00:56:56;;;;;;;2.77;2.40;;;;;;;11.17;88.94;99733.13;4990842;28;20226;-60
2022/04/13 00:59:23;;;;;;;3.93;2.90;;;;;;;11.16;89.23;99733.22;4990896;28;20605;-61
2022/04/13 01:01:50;;;;;;;3.17;2.60;;;;;;;11.05;91.31;99728.72;4969375;28;20342;-66
2022/04/13 01:04:16;;;;;;;4.30;2.90;;;;;;;11.14;91.61;99726.41;4988499;28;20230;-60
2022/04/13 01:06:43;;;;;;;4.73;3.10;;;;;;;11.29;90.44;99734.91;4992120;28;20229;-60
2022/04/13 01:09:11;;;;;;;4.67;2.97;;;;;;;11.35;88.71;99738.88;4990885;28;20179;-60
2022/04/13 01:11:36;;;;;;;4.83;3.30;;;;;;;11.36;88.30;99740.53;4985002;28;20313;-61
2022/04/13 01:14:02;;;;;;;6.40;2.83;;;;;;;11.42;87.89;99737.56;4998573;28;20262;-60
2022/04/13 01:16:27;;;;;;;6.27;2.93;;;;;;;11.50;87.61;99747.38;4994903;28;20278;-60
2022/04/13 01:18:54;;;;;;;6.47;3.10;;;;;;;11.50;86.69;99741.38;4995045;28;20586;-60
2022/04/13 01:21:34;;;;;;;5.53;3.27;;;;;;;11.35;88.55;99749.16;4987713;28;20222;-59
2022/04/13 01:24:03;;;;;;;6.70;3.10;;;;;;;11.30;88.97;99748.63;4994568;28;20194;-59
2022/04/13 01:26:28;;;;;;;3.93;3.03;;;;;;;11.34;88.33;99754.38;4995963;28;20210;-59
2022/04/13 01:28:54;;;;;;;5.13;2.97;;;;;;;11.37;87.60;99755.03;4996125;28;20171;-59
2022/04/13 01:31:19;;;;;;;4.13;2.70;;;;;;;11.37;87.61;99757.59;4995754;28;20292;-59
2022/04/13 01:33:44;;;;;;;4.57;3.07;;;;;;;11.39;86.83;99754.94;5001122;28;20194;-59
2022/04/13 01:36:10;;;;;;;4.23;2.60;;;;;;;11.38;86.89;99748.16;4995442;28;20174;-59
2022/04/13 01:38:35;;;;;;;3.67;2.90;;;;;;;11.30;87.03;99756.34;4995710;28;20186;-59
2022/04/13 01:41:00;;;;;;;5.37;3.20;;;;;;;11.26;88.18;99748.00;4992464;28;20221;-59
2022/04/13 01:43:26;;;;;;;5.70;2.80;;;;;;;11.21;89.32;99755.19;4993574;28;20610;-59
2022/04/13 01:45:53;;;;;;;4.63;3.57;;;;;;;11.19;89.30;99754.44;4994652;28;20183;-60
2022/04/13 01:48:18;;;;;;;5.60;2.87;;;;;;;11.13;89.90;99752.25;4994317;28;20569;-60
2022/04/13 01:50:44;;;;;;;4.80;3.00;;;;;;;11.06;89.44;99759.53;4985137;28;20231;-60
2022/04/13 01:53:10;;;;;;;4.37;2.90;;;;;;;11.11;89.30;99766.97;4981609;28;20180;-60
2022/04/13 01:55:35;;;;;;;4.73;2.80;;;;;;;11.04;89.85;99773.41;4995360;28;20261;-59
2022/04/13 01:58:00;;;;;;;3.23;2.93;;;;;;;11.03;90.42;99769.22;4994968;28;20214;-59
2022/04/13 02:00:25;;;;;;;6.00;3.27;;;;;;;11.11;89.90;99769.53;4983779;28;20609;-59
2022/04/13 02:02:52;;;;;;;4.83;3.13;;;;;;;11.02;89.27;99768.38;4994202;28;20183;-60
2022/04/13 02:05:17;;;;;;;5.27;2.93;;;;;;;10.91;89.57;99766.44;4993486;28;20729;-60
2022/04/13 02:07:43;;;;;;;4.70;2.77;;;;;;;11.04;89.69;99768.25;4995190;28;20227;-59
2022/04/13 02:10:09;;;;;;;6.33;2.77;;;;;;;11.12;88.92;99763.47;4985518;28;20179;-60
2022/04/13 02:12:35;;;;;;;4.47;2.80;;;;;;;11.08;88.74;99757.69;4993498;28;20190;-60
2022/04/13 02:15:01;;;;;;;3.40;3.10;;;;;;;11.16;89.20;99764.13;4994778;28;20207;-60
2022/04/13 02:17:27;;;;;;;4.17;2.83;;;;;;;11.20;88.89;99758.69;4977669;28;20183;-60
2022/04/13 02:19:52;;;;;;;5.50;3.10;;;;;;;11.17;89.01;99758.84;4993450;28;20657;-62
2022/04/13 02:22:17;;;;;;;4.07;2.80;;;;;;;11.16;89.15;99761.53;4999461;28;20682;-61
2022/04/13 02:24:43;;;;;;;4.97;3.17;;;;;;;11.16;89.50;99762.34;4994464;28;20311;-60
2022/04/13 02:27:09;;;;;;;5.63;2.97;;;;;;;11.11;89.91;99765.22;4994569;28;20659;-59
2022/04/13 02:29:36;;;;;;;5.17;3.10;;;;;;;11.09;89.52;99756.78;4993524;28;20182;-58
2022/04/13 02:32:02;;;;;;;3.30;2.77;;;;;;;11.02;89.56;99758.06;4999714;28;20241;-60
2022/04/13 02:34:27;;;;;;;4.43;2.77;;;;;;;10.85;90.71;99756.53;4992728;28;20274;-60
2022/04/13 02:36:53;;;;;;;4.57;3.30;;;;;;;10.83;90.73;99758.38;4994700;28;20207;-61
2022/04/13 02:39:18;;;;;;;4.90;3.50;;;;;;;10.84;90.07;99759.19;4992622;28;20220;-60
2022/04/13 02:41:43;;;;;;;4.10;3.10;;;;;;;10.78;90.33;99752.69;4997240;28;20233;-59
2022/04/13 02:44:09;;;;;;;4.40;3.00;;;;;;;10.74;90.70;99757.19;4996119;28;20519;-60
2022/04/13 02:46:34;;;;;;;4.10;2.80;;;;;;;10.67;91.40;99766.19;4994453;28;20692;-60
2022/04/13 02:48:59;;;;;;;4.30;2.80;;;;;;;10.65;91.56;99763.72;4994547;28;20184;-60
2022/04/13 02:51:24;;;;;;;6.10;2.90;;;;;;;10.62;91.81;99768.22;4995020;28;20794;-61
2022/04/13 02:53:50;;;;;;;5.23;3.10;;;;;;;10.60;92.02;99770.88;4992055;28;20191;-61
2022/04/13 02:56:15;;;;;;;5.17;2.90;;;;;;;10.39;93.05;99772.16;4994052;28;20290;-61
2022/04/13 02:58:41;;;;;;;4.70;3.03;;;;;;;10.46;92.91;99778.59;4994221;28;20187;-60
2022/04/13 03:01:06;;;;;;;4.63;3.07;;;;;;;10.43;92.54;99783.91;4973905;28;20227;-59
2022/04/13 03:03:32;;;;;;;6.83;3.07;;;;;;;10.21;93.13;99781.72;4993109;28;20175;-59
2022/04/13 03:05:57;;;;;;;4.53;3.13;;;;;;;10.15;94.97;99782.94;4992701;28;20206;-61
2022/04/13 03:08:23;;;;;;;3.90;2.73;;;;;;;10.11;95.54;99784.00;4994142;28;20252;-59
2022/04/13 03:10:48;;;;;;;6.50;2.97;;;;;;;9.97;97.59;99784.81;4989654;28;20226;-60
2022/04/13 03:13:14;;;;;;;3.53;2.97;;;;;;;9.97;99.54;99789.94;5002633;28;20175;-60
2022/04/13 03:15:39;;;;;;;4.80;3.20;;;;;;;9.81;100.00;99784.84;4988643;28;20320;-60
2022/04/13 03:18:05;;;;;;;6.90;3.03;;;;;;;9.65;100.00;99792.56;5004019;28;20223;-60
2022/04/13 03:20:31;;;;;;;4.63;3.23;;;;;;;9.57;100.00;99787.88;4985322;28;20288;-60
2022/04/13 03:22:56;;;;;;;6.57;3.20;;;;;;;9.70;100.00;99788.03;4992017;28;20187;-60
2022/04/13 03:25:22;;;;;;;5.20;3.30;;;;;;;9.65;100.00;99787.44;4993430;28;20234;-60
2022/04/13 03:27:47;;;;;;;4.73;3.10;;;;;;;9.74;100.00;99786.94;4993753;28;20578;-60
2022/04/13 03:30:14;;;;;;;3.27;2.80;;;;;;;9.95;100.00;99795.19;4964586;28;20524;-60
2022/04/13 03:32:40;;;;;;;4.07;2.83;;;;;;;10.10;98.33;99790.09;4992310;28;20624;-60
2022/04/13 03:35:07;;;;;;;4.10;2.93;;;;;;;10.15;97.70;99793.22;4992236;28;20179;-60
2022/04/13 03:37:32;;;;;;;4.80;3.20;;;;;;;10.28;96.87;99789.03;4991252;28;20209;-60
2022/04/13 03:39:58;;;;;;;3.93;2.97;;;;;;;10.29;95.93;99792.41;4993352;28;20183;-60
2022/04/13 03:42:23;;;;;;;4.90;3.20;;;;;;;10.21;96.75;99785.16;4998944;28;20227;-60
2022/04/13 03:44:48;;;;;;;3.13;2.73;;;;;;;10.16;96.77;99792.31;4992749;28;20178;-59
2022/04/13 03:47:14;;;;;;;3.13;2.70;;;;;;;10.08;97.83;99787.59;4993246;28;20673;-59
2022/04/13 03:49:39;;;;;;;8.57;3.30;;;;;;;10.13;97.75;99783.03;4993266;28;20214;-59
2022/04/13 03:52:05;;;;;;;3.37;3.07;;;;;;;10.02;97.65;99786.22;4998160;28;20238;-60
2022/04/13 03:54:30;;;;;;;6.03;3.80;;;;;;;10.04;97.02;99786.13;4992473;28;20183;-60
2022/04/13 03:56:55;;;;;;;4.63;3.13;;;;;;;10.00;96.93;99784.66;4993542;28;20269;-59
2022/04/13 03:59:22;;;;;;;5.47;2.97;;;;;;;9.96;97.22;99783.16;4993136;28;20183;-59
2022/04/13 04:01:48;;;;;;;5.60;3.10;;;;;;;9.87;98.10;99789.63;4970528;28;20246;-61
2022/04/13 04:04:13;;;;;;;5.30;3.20;;;;;;;9.84;98.73;99798.34;5006525;28;20227;-60
2022/04/13 04:06:38;;;;;;;6.27;3.63;;;;;;;9.72;100.00;99790.50;5009089;28;20209;-59
2022/04/13 04:09:04;;;;;;;4.63;3.67;;;;;;;9.72;100.00;99787.94;5012369;28;20171;-59
2022/04/13 04:11:29;;;;;;;6.70;3.77;;;;;;;9.69;100.00;99792.31;5001789;28;20223;-60
2022/04/13 04:13:55;;;;;;;7.77;3.90;;;;;;;9.63;100.00;99795.25;5011364;28;20171;-60
2022/04/13 04:16:20;;;;;;;5.23;3.33;;;;;;;9.56;100.00;99793.09;5012326;28;20236;-60
2022/04/13 04:18:48;;;;;;;6.90;3.80;;;;;;;9.50;100.00;99792.53;5010995;28;20186;-60
2022/04/13 04:21:14;;;;;;;6.77;3.47;;;;;;;9.47;100.00;99791.88;5001681;28;20716;-60
2022/04/13 04:23:39;;;;;;;6.10;3.70;;;;;;;9.41;100.00;99789.63;5003717;28;20175;-59
2022/04/13 04:26:04;;;;;;;3.60;3.27;;;;;;;9.32;100.00;99796.09;5012076;28;20198;-59
2022/04/13 04:28:29;;;;;;;5.00;3.50;;;;;;;9.27;100.00;99798.91;5012293;28;20202;-60
2022/04/13 04:30:55;;;;;;;5.93;3.63;;;;;;;9.33;100.00;99801.16;4996760;28;20685;-60
2022/04/13 04:33:20;;;;;;;5.93;3.90;;;;;;;9.29;100.00;99799.66;5007530;28;20194;-61
2022/04/13 04:35:47;;;;;;;8.60;4.47;;;;;;;9.04;100.00;99803.53;4992504;28;20635;-62
2022/04/13 04:38:14;;;;;;;4.57;3.70;;;;;;;8.97;100.00;99803.94;4992317;28;20175;-59
2022/04/13 04:40:40;;;;;;;6.00;3.60;;;;;;;8.92;100.00;99808.47;4979428;28;20228;-59
2022/04/13 04:43:05;;;;;;;4.03;3.40;;;;;;;8.96;100.00;99815.94;4991367;28;20168;-60
2022/04/13 04:45:30;;;;;;;6.73;4.00;;;;;;;9.00;100.00;99809.72;4991020;28;20590;-59
2022/04/13 04:47:57;;;;;;;8.80;5.00;;;;;;;9.04;100.00;99813.81;4992144;28;20570;-60
2022/04/13 04:50:23;;;;;;;7.20;6.07;;;;;;;8.98;100.00;99809.00;4980910;28;20228;-60
2022/04/13 04:52:49;;;;;;;7.70;5.60;;;;;;;8.95;100.00;99811.72;4976116;28;20180;-61
2022/04/13 04:55:17;;;;;;;7.77;6.43;;;;;;;9.00;100.00;99812.28;4990656;28;20190;-60
2022/04/13 04:57:43;;;;;;;11.30;7.00;;;;;;;9.06;100.00;99820.59;4992461;28;20187;-60
2022/04/13 05:00:11;;;;;;;8.97;6.60;;;;;;;9.08;100.00;99824.75;4980463;28;20226;-60
2022/04/13 05:02:37;;;;;;;8.30;5.70;;;;;;;9.03;100.00;99824.16;4990921;28;20187;-60
2022/04/13 05:05:04;;;;;;;6.60;4.93;;;;;;;9.10;100.00;99825.47;4991952;28;20302;-60
2022/04/13 05:07:29;;;;;;;6.40;4.77;;;;;;;9.17;100.00;99819.09;4990574;28;20196;-60
2022/04/13 05:09:55;;;;;;;10.60;5.30;;;;;;;9.13;100.00;99817.63;4992155;28;20183;-60
2022/04/13 05:12:20;;;;;;;5.27;4.17;;;;;;;9.13;100.00;99822.75;4979893;28;20223;-60
2022/04/13 05:14:45;;;;;;;5.13;4.03;;;;;;;9.02;100.00;99819.94;4991650;28;20175;-60
2022/04/13 05:17:11;;;;;;;7.90;4.43;;;;;;;8.91;100.00;99819.66;4991991;28;20250;-59
2022/04/13 05:19:36;;;;;;;4.60;3.97;;;;;;;9.03;100.00;99829.28;4992107;28;20698;-58
2022/04/13 05:22:01;;;;;;;5.20;4.00;;;;;;;9.25;100.00;99826.38;4996894;28;20317;-59
2022/04/13 05:24:27;;;;;;;6.30;4.57;;;;;;;9.27;100.00;99828.91;4991830;28;20179;-59
2022/04/13 05:26:52;;;;;;;5.60;3.97;;;;;;;9.37;100.00;99835.19;4992133;28;20230;-60
2022/04/13 05:29:17;;;;;;;5.40;4.13;;;;;;;9.55;100.00;99835.94;4992053;28;20215;-60
2022/04/13 05:31:43;;;;;;;7.07;3.57;;;;;;;9.77;100.00;99842.44;4994353;28;20234;-59
2022/04/13 05:34:08;;;;;;;6.17;4.43;;;;;;;9.90;98.68;99840.88;4993837;28;20190;-62
2022/04/13 05:36:34;;;;;;;5.67;4.23;;;;;;;9.93;98.05;99845.00;4990532;28;20190;-59
2022/04/13 05:38:59;;;;;;;4.73;3.47;;;;;;;10.13;97.19;99841.28;4990830;28;20963;-59
2022/04/13 05:41:25;;;;;;;8.17;4.20;;;;;;;10.26;95.67;99849.97;4981135;28;20764;-59
2022/04/13 05:43:50;;;;;;;5.93;3.97;;;;;;;10.35;94.84;99853.75;4991111;28;20615;-60
2022/04/13 05:46:15;;;;;;;6.23;3.53;;;;;;;10.54;93.32;99855.28;4992054;28;20210;-61
2022/04/13 05:48:40;;;;;;;7.60;4.37;;;;;;;10.58;92.01;99859.34;4991933;28;20203;-60
2022/04/13 05:51:06;;;;;;;5.57;4.20;;;;;;;10.87;91.14;99859.38;4981319;28;20224;-61
2022/04/13 05:53:36;;;;;;;6.03;4.07;;;;;;;11.00;89.95;99846.59;4989217;28;20260;-62
2022/04/13 05:56:01;;;;;;;4.73;4.10;;;;;;;11.02;89.72;99860.22;4992166;28;20202;-61
2022/04/13 05:58:28;;;;;;;6.57;3.83;;;;;;;11.17;88.57;99861.84;4992847;28;20208;-59
2022/04/13 06:00:54;;;;;;;7.30;3.80;;;;;;;11.16;88.05;99865.31;4980685;28;20231;-60
2022/04/13 06:03:20;;;;;;;6.73;3.87;;;;;;;11.34;89.46;99870.28;4984228;28;20175;-60
2022/04/13 06:05:46;;;;;;;7.23;3.83;;;;;;;11.60;88.08;99864.34;4993592;28;20240;-60
2022/04/13 06:08:12;;;;;;;5.53;4.20;;;;;;;11.38;87.82;99885.44;4994934;28;20210;-60
2022/04/13 06:10:38;;;;;;;5.97;4.37;;;;;;;11.83;86.72;99885.25;4987126;28;20234;-60
2022/04/13 06:13:03;;;;;;;6.17;4.40;;;;;;;12.25;84.41;99883.47;5005666;28;20187;-59
2022/04/13 06:15:28;;;;;;;10.20;4.40;;;;;;;12.61;81.25;99893.22;5003051;28;20642;-59
2022/04/13 06:17:54;;;;;;;4.60;4.07;;;;;;;13.00;79.02;99887.13;5013294;28;20213;-59
2022/04/13 06:20:20;;;;;;;9.10;4.60;;;;;;;13.03;75.32;99897.22;5001966;28;20205;-60
2022/04/13 06:22:45;;;;;;;7.50;3.47;;;;;;;13.44;74.77;99900.50;4996178;28;20167;-59
2022/04/13 06:25:12;;;;;;;6.63;4.43;;;;;;;13.72;72.12;99902.00;5010232;28;20191;-59
2022/04/13 06:27:40;;;;;;;9.53;3.73;;;;;;;13.66;71.35;99902.41;5013527;28;20195;-59
2022/04/13 06:30:07;;;;;;;7.30;4.10;;;;;;;14.06;68.69;99905.69;4992438;28;20199;-59
2022/04/13 06:32:33;;;;;;;5.50;4.33;;;;;;;14.25;67.11;99907.75;5005882;28;20318;-60
2022/04/13 06:35:00;;;;;;;9.30;4.13;;;;;;;14.64;64.51;99903.16;5012895;28;20186;-60
2022/04/13 06:37:26;;;;;;;6.50;4.70;;;;;;;14.91;62.60;99910.66;5009693;28;20179;-59
2022/04/13 06:39:51;;;;;;;5.57;3.90;;;;;;;15.40;60.54;99913.81;5010578;28;20270;-59
2022/04/13 06:42:17;;;;;;;5.17;4.10;;;;;;;15.66;58.66;99916.13;5002361;28;20218;-59
2022/04/13 06:44:43;;;;;;;5.83;3.60;;;;;;;16.14;56.95;99913.19;5004888;28;20210;-60
2022/04/13 06:47:08;;;;;;;6.07;3.93;;;;;;;17.16;52.91;99921.34;4997921;28;20642;-60
2022/04/13 06:49:33;;;;;;;5.33;3.90;;;;;;;18.05;50.53;99923.22;5013757;28;20197;-61
2022/04/13 06:51:58;;;;;;;6.13;3.90;;;;;;;17.63;50.60;99928.63;4983024;28;20594;-65
2022/04/13 06:54:24;;;;;;;5.50;4.27;;;;;;;18.20;48.30;99923.63;4978668;28;20388;-65
2022/04/13 06:56:49;;;;;;;5.63;4.00;;;;;;;18.73;46.97;99930.16;4974693;28;20234;-65
2022/04/13 06:59:15;;;;;;;6.57;4.00;;;;;;;19.15;45.28;99941.97;5006987;28;20194;-64
2022/04/13 07:01:40;;;;;;;4.67;4.00;;;;;;;19.30;45.30;99943.16;4975406;28;20550;-63
2022/04/13 07:04:05;;;;;;;5.33;3.70;;;;;;;19.31;44.15;99942.19;4981102;28;20581;-63
2022/04/13 07:06:31;;;;;;;6.00;3.90;;;;;;;19.91;43.32;99937.47;5007375;28;20187;-66
2022/04/13 07:08:56;;;;;;;4.80;4.00;;;;;;;20.12;41.89;99945.84;5008510;28;20207;-65
2022/04/13 07:11:21;;;;;;;7.13;4.20;;;;;;;20.02;40.79;99941.66;4999863;28;20218;-65
2022/04/13 07:13:47;;;;;;;10.53;4.87;;;;;;;20.23;40.09;99944.78;4993035;28;20184;-63
2022/04/13 07:16:12;;;;;;;9.33;5.57;;;;;;;20.76;38.88;99945.72;4994607;28;20301;-64
2022/04/13 07:18:37;;;;;;;8.87;4.63;;;;;;;19.91;40.34;99940.91;4996977;28;20205;-64
2022/04/13 07:21:02;;;;;;;9.20;4.40;;;;;;;19.82;41.00;99932.16;4985377;28;20575;-68
2022/04/13 07:23:28;;;;;;;7.13;3.87;;;;;;;19.45;41.54;99935.66;5000718;28;20187;-63
2022/04/13 07:25:53;;;;;;;6.47;4.07;;;;;;;19.49;41.52;99930.97;4992140;28;20199;-65
2022/04/13 07:28:20;;;;;;;8.20;4.00;;;;;;;18.88;42.71;99928.72;4992101;28;20211;-63
2022/04/13 07:30:45;;;;;;;5.70;3.40;;;;;;;18.14;43.16;99932.00;4965001;28;20293;-64
2022/04/13 07:33:11;;;;;;;4.57;3.80;;;;;;;17.50;44.20;99942.69;5002769;28;20234;-64
2022/04/13 07:38:58;;;;;;;5.33;4.47;;;;;;;18.07;43.30;99936.91;4990957;28;20194;-63
2022/04/13 07:41:23;;;;;;;5.80;4.10;;;;;;;18.17;43.08;99936.91;4982589;28;20729;-65
2022/04/13 07:43:49;;;;;;;5.20;3.67;;;;;;;18.14;42.87;99935.41;4988184;28;20184;-64
2022/04/13 07:46:15;;;;;;;7.30;4.37;;;;;;;18.19;42.94;99935.00;4974322;28;20180;-64
2022/04/13 07:48:41;;;;;;;6.27;4.37;;;;;;;17.88;44.09;99945.50;4976069;28;20214;-66
2022/04/13 07:51:06;;;;;;;9.13;4.33;;;;;;;18.25;43.84;99951.88;4991144;28;20234;-65
2022/04/13 07:53:31;;;;;;;13.70;4.60;;;;;;;18.05;44.23;99936.25;4999191;28;20638;-63
2022/04/13 07:55:57;;;;;;;7.33;4.57;;;;;;;18.33;44.31;99938.97;4975092;28;20236;-63
2022/04/13 07:58:22;;;;;;;11.67;4.17;;;;;;;18.69;44.11;99950.44;4971957;28;20242;-62
2022/04/13 08:00:47;;;;;;;7.63;4.70;;;;;;;18.19;45.92;99961.03;4965248;28;20269;-67
2022/04/13 08:03:13;;;;;;;12.67;4.80;;;;;;;18.98;43.99;99960.00;4970873;28;20422;-67
2022/04/13 08:05:39;;;;;;;7.87;4.83;;;;;;;18.63;43.96;99979.66;4973130;28;20235;-64
2022/04/13 08:08:05;;;;;;;8.27;4.70;;;;;;;19.65;43.07;99980.72;4971625;28;20202;-63
2022/04/13 08:10:31;;;;;;;8.77;4.57;;;;;;;20.16;41.49;99977.69;4966767;28;20239;-62
2022/04/13 08:12:56;;;;;;;7.63;4.03;;;;;;;20.84;40.60;99994.59;4986021;28;20172;-63
2022/04/13 08:15:21;;;;;;;7.60;4.50;;;;;;;21.11;39.52;99998.00;5008395;28;20555;-63
2022/04/13 08:17:47;;;;;;;11.17;4.67;;;;;;;20.60;38.85;100000.41;5012189;28;20721;-66
2022/04/13 08:20:14;;;;;;;5.40;3.83;;;;;;;20.91;39.37;99989.56;5000221;28;20217;-63
2022/04/13 08:22:41;;;;;;;7.67;4.43;;;;;;;21.57;37.64;99995.16;4996193;28;20646;-63
2022/04/13 08:25:07;;;;;;;6.87;4.23;;;;;;;21.79;37.65;100003.41;4988221;28;20294;-65
2022/04/13 08:27:32;;;;;;;5.67;4.10;;;;;;;22.65;36.58;100002.22;4987655;28;20678;-65
2022/04/13 08:29:58;;;;;;;10.77;4.70;;;;;;;23.28;34.85;100004.25;4991805;28;20213;-66
2022/04/13 08:32:23;;;;;;;8.47;3.97;;;;;;;22.78;34.97;100011.41;4997730;28;20227;-65
2022/04/13 08:34:51;;;;;;;12.80;6.03;;;;;;;22.81;35.56;100026.78;4991924;28;20172;-65
2022/04/13 08:37:18;;;;;;;5.83;3.93;;;;;;;22.46;35.20;100026.94;4992218;28;20237;-63
2022/04/13 08:39:43;;;;;;;9.00;3.83;;;;;;;22.55;34.76;100025.16;5006353;28;20637;-66
2022/04/13 08:42:12;;;;;;;11.93;4.00;;;;;;;24.26;33.41;100029.25;4995776;28;20219;-64
2022/04/13 08:44:47;;;;;;;12.38;3.78;;;;;;;24.96;31.50;100030.00;4991180;28;20530;-66
2022/04/13 08:47:17;;;;;;;11.50;4.20;;;;;;;25.61;31.58;100037.38;4992169;28;20642;-69
2022/04/13 08:49:45;;;;;;;5.18;3.53;;;;;;;26.45;29.08;100040.50;4997278;28;20190;-67
2022/04/13 08:52:14;;;;;;;6.75;4.57;;;;;;;26.49;29.23;100036.47;4981206;28;20276;-63
2022/04/13 08:54:58;;;;;;;8.98;4.70;;;;;;;26.89;29.35;100032.34;4990570;28;20175;-64
2022/04/13 08:57:27;;;;;;;7.63;4.65;;;;;;;27.32;27.80;100036.66;5007019;28;20185;-65
2022/04/13 09:00:03;;;;;;;4.65;3.78;;;;;;;26.87;27.64;100039.66;5001914;28;20258;-62
2022/04/13 09:02:50;;;;;;;8.02;4.03;;;;;;;27.69;26.53;100039.09;4957905;28;20307;-63
2022/04/13 09:05:28;;;;;;;5.75;4.57;;;;;;;27.65;26.47;100043.16;4972452;28;20231;-63
2022/04/13 09:08:05;;;;;;;7.95;4.05;;;;;;;26.02;28.41;100042.06;4989761;28;20302;-64
2022/04/13 09:10:31;;;;;;;6.03;4.53;;;;;;;27.79;26.10;100028.94;5001480;28;20253;-63
2022/04/13 09:12:57;;;;;;;5.70;4.07;;;;;;;26.55;28.07;100047.06;5005141;28;20174;-63
2022/04/13 09:15:23;;;;;;;7.53;4.45;;;;;;;27.36;28.89;100045.84;5005266;28;20186;-68
2022/04/13 09:17:50;;;;;;;11.02;5.45;;;;;;;26.90;28.33;100044.56;4988605;28;20179;-75
2022/04/13 09:20:15;;;;;;;6.25;4.78;;;;;;;26.29;28.95;100044.22;4996003;28;20180;-64
2022/04/13 09:22:42;;;;;;;9.23;4.13;;;;;;;27.48;27.82;100040.03;5003749;28;20237;-64
2022/04/13 09:25:08;;;;;;;6.38;4.22;;;;;;;27.56;27.69;100033.75;5006304;28;20182;-64
2022/04/13 09:27:36;;;;;;;6.38;4.82;;;;;;;27.77;26.68;100036.25;5006212;28;20195;-66
2022/04/13 09:30:01;;;;;;;7.95;5.00;;;;;;;28.48;25.87;100039.47;4969741;28;20176;-64
2022/04/13 09:32:28;;;;;;;5.32;4.43;;;;;;;28.45;26.06;100037.22;4950302;28;20207;-63
2022/04/13 09:34:54;;;;;;;7.03;4.10;;;;;;;28.29;26.47;100028.69;5010310;28;20209;-65
2022/04/13 09:37:20;;;;;;;6.88;4.45;;;;;;;27.20;28.86;100032.94;5013910;28;20183;-63
2022/04/13 09:39:46;;;;;;;7.55;4.97;;;;;;;26.12;28.58;100031.25;5013200;28;20193;-65
2022/04/13 09:42:13;;;;;;;7.88;5.25;;;;;;;27.55;26.92;100022.38;4988258;28;20541;-63
2022/04/13 09:44:53;;;;;;;6.88;4.38;;;;;;;28.37;26.01;100026.84;5012337;28;20237;-64
2022/04/13 09:47:18;;;;;;;9.05;4.55;;;;;;;27.70;26.88;100028.31;5013189;28;20661;-66
2022/04/13 09:49:52;;;;;;;9.60;5.10;;;;;;;28.16;25.61;100026.03;5011294;28;20473;-63
2022/04/13 09:52:20;;;;;;;7.13;4.70;;;;;;;26.38;28.30;100029.88;4982755;28;20215;-63
2022/04/13 09:54:46;;;;;;;7.43;4.40;;;;;;;26.95;27.87;100028.13;5006258;28;20494;-63
2022/04/13 09:57:25;;;;;;;6.65;4.22;;;;;;;26.69;27.49;100026.09;5013332;28;20190;-63
2022/04/13 09:59:55;;;;;;;5.65;4.38;;;;;;;26.71;28.02;100021.44;5013525;28;20190;-65
2022/04/13 10:02:37;;;;;;;6.97;4.73;;;;;;;28.06;27.56;100023.78;4981320;28;20551;-62
2022/04/13 10:05:04;;;;;;;8.10;4.00;;;;;;;30.23;23.78;100022.03;5011174;28;20470;-63
2022/04/13 10:07:29;;;;;;;7.32;4.20;;;;;;;28.85;25.32;100018.69;5012221;28;20221;-63
2022/04/13 10:09:54;;;;;;;5.78;4.05;;;;;;;28.12;25.40;100022.97;5011331;28;20191;-62
2022/04/13 10:12:20;;;;;;;5.82;4.70;;;;;;;26.96;27.12;100013.13;5002610;28;20226;-64
2022/04/13 10:14:46;;;;;;;7.53;4.90;;;;;;;26.19;28.66;100018.16;5005264;28;20194;-66
2022/04/13 10:17:13;;;;;;;7.22;4.15;;;;;;;25.52;30.84;100014.78;4999189;28;20191;-63
2022/04/13 10:19:39;;;;;;;7.47;4.07;;;;;;;24.93;29.94;100014.56;5007204;28;20370;-67
2022/04/13 10:22:05;;;;;;;5.75;3.80;;;;;;;25.13;30.85;100011.38;4969262;28;20227;-63
2022/04/13 10:24:35;;;;;;;9.55;4.43;;;;;;;25.20;30.80;100008.88;5008480;28;20181;-70
2022/04/13 10:27:18;;;;;;;7.28;5.07;;;;;;;24.73;31.55;100014.25;5009803;28;20562;-64
2022/04/13 10:29:52;;;;;;;8.77;5.40;;;;;;;24.07;33.29;100004.22;5010664;28;20198;-68
2022/04/13 10:32:22;;;;;;;5.38;4.63;;;;;;;25.15;31.58;100004.13;4973221;28;20273;-64
2022/04/13 10:34:59;;;;;;;9.02;5.10;;;;;;;25.59;31.74;99997.25;5011272;28;20225;-64
2022/04/13 10:37:26;;;;;;;9.68;4.68;;;;;;;25.80;30.58;100001.75;5006553;28;20238;-66
2022/04/13 10:39:58;;;;;;;8.27;5.53;;;;;;;25.89;29.98;100003.25;5012571;28;20423;-64
2022/04/13 10:42:29;;;;;;;8.98;4.93;;;;;;;24.04;32.43;100001.97;5002610;28;20694;-65
2022/04/13 10:45:06;;;;;;;9.13;5.22;;;;;;;22.83;34.31;99999.41;4995762;28;20475;-63
2022/04/13 10:47:50;;;;;;;7.43;5.63;;;;;;;22.13;35.50;99994.63;4993068;28;20500;-64
2022/04/13 10:50:24;;;;;;;6.43;4.77;;;;;;;21.95;36.62;99992.16;4984927;28;20352;-65
2022/04/13 10:53:24;;;;;;;5.87;5.07;;;;;;;21.30;38.04;99994.38;5009428;28;20178;-77
2022/04/13 10:56:16;;;;;;;9.80;5.97;;;;;;;21.65;36.54;99995.19;5011670;28;20430;-68
2022/04/13 10:58:53;;;;;;;8.73;5.23;;;;;;;21.78;36.86;99994.75;5013932;28;20174;-64
2022/04/13 11:01:20;;;;;;;8.73;5.33;;;;;;;21.79;37.07;99990.31;4982764;28;20234;-66
2022/04/13 11:03:47;;;;;;;10.70;6.43;;;;;;;22.52;35.96;99986.19;4981301;28;20919;-64
2022/04/13 11:06:13;;;;;;;10.98;5.43;;;;;;;22.50;36.26;99988.13;5001232;28;20906;-62
2022/04/13 11:09:01;;;;;;;9.80;6.03;;;;;;;22.14;36.79;99996.28;5012287;28;20618;-63
2022/04/13 11:11:29;;;;;;;9.48;6.15;;;;;;;22.34;37.03;99989.75;5002190;28;20489;-64
2022/04/13 11:13:55;;;;;;;11.20;7.07;;;;;;;22.10;37.32;99993.16;5007033;28;20187;-64
2022/04/13 11:16:25;;;;;;;13.67;6.10;;;;;;;22.12;37.57;99995.63;4993447;28;20234;-64
2022/04/13 11:19:05;;;;;;;8.67;5.50;;;;;;;21.93;36.93;99998.38;4990738;28;20188;-64
2022/04/13 11:21:54;;;;;;;12.95;6.78;;;;;;;22.22;36.50;99981.38;4984432;28;20994;-65
2022/04/13 11:24:40;;;;;;;10.00;6.17;;;;;;;22.34;36.72;99987.13;4991785;28;20179;-63
2022/04/13 11:27:08;;;;;;;13.27;6.27;;;;;;;22.05;36.33;99993.66;4992484;28;20219;-63
2022/04/13 11:29:34;;;;;;;10.57;6.40;;;;;;;21.86;36.65;99993.94;4993690;28;20187;-65
2022/04/13 11:32:05;;;;;;;11.77;6.07;;;;;;;22.02;36.85;99993.16;4950870;28;20233;-63
2022/04/13 11:34:35;;;;;;;12.10;5.97;;;;;;;22.04;36.20;99999.03;5010717;28;20191;-61